sensor_id;sensor_type;location;lat;lon;timestamp;P1;durP1;ratioP1;P2;durP2;ratioP2
15271;SDS011;7737;51.578;7.268;2022-09-01T00:00:37;1.88;;;1.00;;
15271;SDS011;7737;51.578;7.268;2022-09-01T00:03:06;1.27;;;0.88;;
15271;SDS011;7737;51.578;7.268;2022-09-01T00:05:34;2.00;;;0.85;;
15271;SDS011;7737;51.578;7.268;2022-09-01T00:08:01;1.25;;;1.05;;
15271;SDS011;7737;51.578;7.268;2022-09-01T00:10:28;2.30;;;1.00;;
15271;SDS011;7737;51.578;7.268;2022-09-01T00:12:54;3.38;;;1.00;;
15271;SDS011;7737;51.578;7.268;2022-09-01T00:15:21;2.47;;;0.98;;
15271;SDS011;7737;51.578;7.268;2022-09-01T00:17:49;1.88;;;0.90;;
15271;SDS011;7737;51.578;7.268;2022-09-01T00:20:15;2.03;;;0.88;;
15271;SDS011;7737;51.578;7.268;2022-09-01T00:22:42;1.17;;;0.98;;
15271;SDS011;7737;51.578;7.268;2022-09-01T00:25:08;3.10;;;0.85;;
15271;SDS011;7737;51.578;7.268;2022-09-01T00:27:35;3.47;;;0.98;;
15271;SDS011;7737;51.578;7.268;2022-09-01T00:30:01;1.88;;;1.20;;
15271;SDS011;7737;51.578;7.268;2022-09-01T00:32:28;1.50;;;0.85;;
15271;SDS011;7737;51.578;7.268;2022-09-01T00:34:56;3.53;;;0.98;;
15271;SDS011;7737;51.578;7.268;2022-09-01T00:37:23;1.63;;;0.98;;
15271;SDS011;7737;51.578;7.268;2022-09-01T00:39:50;2.25;;;1.23;;
15271;SDS011;7737;51.578;7.268;2022-09-01T00:42:16;1.80;;;0.90;;
15271;SDS011;7737;51.578;7.268;2022-09-01T00:44:43;2.55;;;1.10;;
15271;SDS011;7737;51.578;7.268;2022-09-01T00:47:09;1.83;;;1.20;;
15271;SDS011;7737;51.578;7.268;2022-09-01T00:49:38;1.50;;;1.05;;
15271;SDS011;7737;51.578;7.268;2022-09-01T00:52:08;2.20;;;1.10;;
15271;SDS011;7737;51.578;7.268;2022-09-01T00:54:39;1.73;;;0.80;;
15271;SDS011;7737;51.578;7.268;2022-09-01T00:57:08;2.53;;;1.00;;
15271;SDS011;7737;51.578;7.268;2022-09-01T00:59:37;1.08;;;0.98;;
15271;SDS011;7737;51.578;7.268;2022-09-01T01:02:08;2.90;;;0.90;;
15271;SDS011;7737;51.578;7.268;2022-09-01T01:04:35;3.75;;;1.35;;
15271;SDS011;7737;51.578;7.268;2022-09-01T01:07:01;2.83;;;1.23;;
15271;SDS011;7737;51.578;7.268;2022-09-01T01:09:32;1.30;;;1.00;;
15271;SDS011;7737;51.578;7.268;2022-09-01T01:12:02;2.40;;;1.20;;
15271;SDS011;7737;51.578;7.268;2022-09-01T01:14:30;2.60;;;1.02;;
15271;SDS011;7737;51.578;7.268;2022-09-01T01:17:01;2.58;;;1.00;;
15271;SDS011;7737;51.578;7.268;2022-09-01T01:19:32;2.78;;;1.00;;
15271;SDS011;7737;51.578;7.268;2022-09-01T01:22:26;3.42;;;1.08;;
15271;SDS011;7737;51.578;7.268;2022-09-01T01:25:30;3.63;;;1.10;;
15271;SDS011;7737;51.578;7.268;2022-09-01T01:28:02;5.50;;;1.00;;
15271;SDS011;7737;51.578;7.268;2022-09-01T01:30:30;2.85;;;1.15;;
15271;SDS011;7737;51.578;7.268;2022-09-01T01:32:59;6.22;;;1.10;;
15271;SDS011;7737;51.578;7.268;2022-09-01T01:35:26;4.35;;;1.33;;
15271;SDS011;7737;51.578;7.268;2022-09-01T01:37:53;1.63;;;1.13;;
15271;SDS011;7737;51.578;7.268;2022-09-01T01:40:20;2.85;;;1.13;;
15271;SDS011;7737;51.578;7.268;2022-09-01T01:42:49;2.22;;;1.15;;
15271;SDS011;7737;51.578;7.268;2022-09-01T01:45:19;6.28;;;0.90;;
15271;SDS011;7737;51.578;7.268;2022-09-01T01:47:48;2.30;;;1.20;;
15271;SDS011;7737;51.578;7.268;2022-09-01T01:50:17;1.98;;;1.00;;
15271;SDS011;7737;51.578;7.268;2022-09-01T01:52:44;4.15;;;1.10;;
15271;SDS011;7737;51.578;7.268;2022-09-01T01:55:11;3.47;;;1.05;;
15271;SDS011;7737;51.578;7.268;2022-09-01T01:57:38;1.80;;;1.00;;
15271;SDS011;7737;51.578;7.268;2022-09-01T02:00:15;3.13;;;1.13;;
15271;SDS011;7737;51.578;7.268;2022-09-01T02:02:44;4.35;;;1.17;;
15271;SDS011;7737;51.578;7.268;2022-09-01T02:05:17;1.35;;;0.90;;
15271;SDS011;7737;51.578;7.268;2022-09-01T02:07:49;4.72;;;1.30;;
15271;SDS011;7737;51.578;7.268;2022-09-01T02:10:20;2.35;;;1.02;;
15271;SDS011;7737;51.578;7.268;2022-09-01T02:12:48;2.05;;;1.20;;
15271;SDS011;7737;51.578;7.268;2022-09-01T02:15:16;3.00;;;1.20;;
15271;SDS011;7737;51.578;7.268;2022-09-01T02:17:42;3.28;;;1.20;;
15271;SDS011;7737;51.578;7.268;2022-09-01T02:20:09;3.40;;;1.00;;
15271;SDS011;7737;51.578;7.268;2022-09-01T02:22:35;3.28;;;1.10;;
15271;SDS011;7737;51.578;7.268;2022-09-01T02:25:03;2.70;;;1.17;;
15271;SDS011;7737;51.578;7.268;2022-09-01T02:27:30;2.67;;;1.10;;
15271;SDS011;7737;51.578;7.268;2022-09-01T02:29:59;1.10;;;1.00;;
15271;SDS011;7737;51.578;7.268;2022-09-01T02:32:27;2.53;;;1.00;;
15271;SDS011;7737;51.578;7.268;2022-09-01T02:34:53;3.33;;;1.20;;
15271;SDS011;7737;51.578;7.268;2022-09-01T02:37:25;1.38;;;1.08;;
15271;SDS011;7737;51.578;7.268;2022-09-01T02:39:52;2.33;;;0.95;;
15271;SDS011;7737;51.578;7.268;2022-09-01T02:42:21;1.85;;;1.10;;
15271;SDS011;7737;51.578;7.268;2022-09-01T02:44:51;1.42;;;1.00;;
15271;SDS011;7737;51.578;7.268;2022-09-01T02:47:17;1.73;;;1.00;;
15271;SDS011;7737;51.578;7.268;2022-09-01T02:49:45;2.92;;;1.20;;
15271;SDS011;7737;51.578;7.268;2022-09-01T02:52:11;3.50;;;1.00;;
15271;SDS011;7737;51.578;7.268;2022-09-01T02:54:40;2.85;;;1.00;;
15271;SDS011;7737;51.578;7.268;2022-09-01T02:57:09;3.22;;;1.35;;
15271;SDS011;7737;51.578;7.268;2022-09-01T02:59:36;3.28;;;1.17;;
15271;SDS011;7737;51.578;7.268;2022-09-01T03:02:03;3.72;;;1.45;;
15271;SDS011;7737;51.578;7.268;2022-09-01T03:04:31;2.28;;;1.15;;
15271;SDS011;7737;51.578;7.268;2022-09-01T03:07:00;4.97;;;1.23;;
15271;SDS011;7737;51.578;7.268;2022-09-01T03:09:26;2.75;;;1.15;;
15271;SDS011;7737;51.578;7.268;2022-09-01T03:11:53;1.45;;;1.20;;
15271;SDS011;7737;51.578;7.268;2022-09-01T03:14:21;3.47;;;1.15;;
15271;SDS011;7737;51.578;7.268;2022-09-01T03:16:48;4.88;;;1.40;;
15271;SDS011;7737;51.578;7.268;2022-09-01T03:19:15;3.63;;;1.30;;
15271;SDS011;7737;51.578;7.268;2022-09-01T03:21:43;3.33;;;1.20;;
15271;SDS011;7737;51.578;7.268;2022-09-01T03:24:15;3.90;;;1.52;;
15271;SDS011;7737;51.578;7.268;2022-09-01T03:26:43;5.53;;;1.70;;
15271;SDS011;7737;51.578;7.268;2022-09-01T03:29:11;3.85;;;1.20;;
15271;SDS011;7737;51.578;7.268;2022-09-01T03:31:39;4.28;;;1.30;;
15271;SDS011;7737;51.578;7.268;2022-09-01T03:34:06;6.70;;;1.30;;
15271;SDS011;7737;51.578;7.268;2022-09-01T03:36:35;3.33;;;1.20;;
15271;SDS011;7737;51.578;7.268;2022-09-01T03:39:01;4.43;;;1.45;;
15271;SDS011;7737;51.578;7.268;2022-09-01T03:41:30;6.35;;;1.40;;
15271;SDS011;7737;51.578;7.268;2022-09-01T03:43:56;5.45;;;1.50;;
15271;SDS011;7737;51.578;7.268;2022-09-01T03:46:23;4.43;;;1.45;;
15271;SDS011;7737;51.578;7.268;2022-09-01T03:48:51;4.53;;;1.48;;
15271;SDS011;7737;51.578;7.268;2022-09-01T03:51:20;3.50;;;1.50;;
15271;SDS011;7737;51.578;7.268;2022-09-01T03:53:48;2.78;;;1.25;;
15271;SDS011;7737;51.578;7.268;2022-09-01T03:56:18;2.95;;;1.20;;
15271;SDS011;7737;51.578;7.268;2022-09-01T03:58:47;3.25;;;1.10;;
15271;SDS011;7737;51.578;7.268;2022-09-01T04:01:14;6.93;;;1.50;;
15271;SDS011;7737;51.578;7.268;2022-09-01T04:03:41;6.07;;;1.63;;
15271;SDS011;7737;51.578;7.268;2022-09-01T04:06:11;6.13;;;1.40;;
15271;SDS011;7737;51.578;7.268;2022-09-01T04:08:38;8.20;;;1.20;;
15271;SDS011;7737;51.578;7.268;2022-09-01T04:11:09;5.38;;;1.60;;
15271;SDS011;7737;51.578;7.268;2022-09-01T04:13:38;4.95;;;1.40;;
15271;SDS011;7737;51.578;7.268;2022-09-01T04:16:14;2.53;;;1.10;;
15271;SDS011;7737;51.578;7.268;2022-09-01T04:19:02;1.65;;;1.20;;
15271;SDS011;7737;51.578;7.268;2022-09-01T04:21:39;4.43;;;1.33;;
15271;SDS011;7737;51.578;7.268;2022-09-01T04:24:07;3.47;;;1.10;;
15271;SDS011;7737;51.578;7.268;2022-09-01T04:26:34;3.80;;;1.10;;
15271;SDS011;7737;51.578;7.268;2022-09-01T04:29:02;4.50;;;1.20;;
15271;SDS011;7737;51.578;7.268;2022-09-01T04:31:29;4.35;;;1.20;;
15271;SDS011;7737;51.578;7.268;2022-09-01T04:33:56;3.20;;;1.30;;
15271;SDS011;7737;51.578;7.268;2022-09-01T04:36:23;4.85;;;1.42;;
15271;SDS011;7737;51.578;7.268;2022-09-01T04:38:52;2.67;;;1.10;;
15271;SDS011;7737;51.578;7.268;2022-09-01T04:41:20;2.00;;;1.20;;
15271;SDS011;7737;51.578;7.268;2022-09-01T04:43:49;3.83;;;1.55;;
15271;SDS011;7737;51.578;7.268;2022-09-01T04:46:20;5.85;;;1.60;;
15271;SDS011;7737;51.578;7.268;2022-09-01T04:48:50;4.75;;;1.60;;
15271;SDS011;7737;51.578;7.268;2022-09-01T04:51:18;2.33;;;1.30;;
15271;SDS011;7737;51.578;7.268;2022-09-01T04:53:44;2.63;;;1.55;;
15271;SDS011;7737;51.578;7.268;2022-09-01T04:56:13;4.13;;;1.50;;
15271;SDS011;7737;51.578;7.268;2022-09-01T04:58:43;1.85;;;1.38;;
15271;SDS011;7737;51.578;7.268;2022-09-01T05:01:13;5.20;;;1.80;;
15271;SDS011;7737;51.578;7.268;2022-09-01T05:03:41;4.05;;;1.77;;
15271;SDS011;7737;51.578;7.268;2022-09-01T05:06:13;6.07;;;2.75;;
15271;SDS011;7737;51.578;7.268;2022-09-01T05:08:41;3.05;;;1.70;;
15271;SDS011;7737;51.578;7.268;2022-09-01T05:11:10;4.93;;;1.75;;
15271;SDS011;7737;51.578;7.268;2022-09-01T05:13:41;3.72;;;1.85;;
15271;SDS011;7737;51.578;7.268;2022-09-01T05:16:09;3.92;;;2.20;;
15271;SDS011;7737;51.578;7.268;2022-09-01T05:18:39;3.25;;;1.95;;
15271;SDS011;7737;51.578;7.268;2022-09-01T05:21:09;3.80;;;1.75;;
15271;SDS011;7737;51.578;7.268;2022-09-01T05:23:37;4.13;;;1.90;;
15271;SDS011;7737;51.578;7.268;2022-09-01T05:26:04;4.13;;;1.95;;
15271;SDS011;7737;51.578;7.268;2022-09-01T05:28:38;5.18;;;1.90;;
15271;SDS011;7737;51.578;7.268;2022-09-01T05:31:06;4.07;;;2.05;;
15271;SDS011;7737;51.578;7.268;2022-09-01T05:33:32;6.07;;;2.28;;
15271;SDS011;7737;51.578;7.268;2022-09-01T05:36:02;3.95;;;2.00;;
15271;SDS011;7737;51.578;7.268;2022-09-01T05:38:32;5.35;;;1.90;;
15271;SDS011;7737;51.578;7.268;2022-09-01T05:41:01;4.55;;;1.80;;
15271;SDS011;7737;51.578;7.268;2022-09-01T05:43:32;2.78;;;1.38;;
15271;SDS011;7737;51.578;7.268;2022-09-01T05:46:00;5.05;;;1.40;;
15271;SDS011;7737;51.578;7.268;2022-09-01T05:48:28;6.72;;;1.63;;
15271;SDS011;7737;51.578;7.268;2022-09-01T05:50:55;3.60;;;1.42;;
15271;SDS011;7737;51.578;7.268;2022-09-01T05:53:23;5.03;;;1.70;;
15271;SDS011;7737;51.578;7.268;2022-09-01T05:55:51;4.28;;;1.80;;
15271;SDS011;7737;51.578;7.268;2022-09-01T05:58:22;3.80;;;1.65;;
15271;SDS011;7737;51.578;7.268;2022-09-01T06:00:51;5.72;;;1.58;;
15271;SDS011;7737;51.578;7.268;2022-09-01T06:03:20;4.45;;;1.63;;
15271;SDS011;7737;51.578;7.268;2022-09-01T06:05:48;3.78;;;1.55;;
15271;SDS011;7737;51.578;7.268;2022-09-01T06:08:17;6.18;;;1.77;;
15271;SDS011;7737;51.578;7.268;2022-09-01T06:10:45;6.78;;;1.80;;
15271;SDS011;7737;51.578;7.268;2022-09-01T06:13:14;3.45;;;1.33;;
15271;SDS011;7737;51.578;7.268;2022-09-01T06:15:45;5.38;;;1.80;;
15271;SDS011;7737;51.578;7.268;2022-09-01T06:18:13;2.90;;;1.60;;
15271;SDS011;7737;51.578;7.268;2022-09-01T06:20:42;3.25;;;1.83;;
15271;SDS011;7737;51.578;7.268;2022-09-01T06:23:11;5.30;;;2.13;;
15271;SDS011;7737;51.578;7.268;2022-09-01T06:25:39;5.53;;;2.28;;
15271;SDS011;7737;51.578;7.268;2022-09-01T06:28:10;7.32;;;2.53;;
15271;SDS011;7737;51.578;7.268;2022-09-01T06:30:38;6.03;;;1.90;;
15271;SDS011;7737;51.578;7.268;2022-09-01T06:33:11;4.25;;;1.98;;
15271;SDS011;7737;51.578;7.268;2022-09-01T06:35:38;4.20;;;1.80;;
15271;SDS011;7737;51.578;7.268;2022-09-01T06:38:06;5.63;;;1.92;;
15271;SDS011;7737;51.578;7.268;2022-09-01T06:40:33;3.88;;;1.73;;
15271;SDS011;7737;51.578;7.268;2022-09-01T06:43:05;4.07;;;2.03;;
15271;SDS011;7737;51.578;7.268;2022-09-01T06:45:33;5.10;;;2.25;;
15271;SDS011;7737;51.578;7.268;2022-09-01T06:48:04;2.85;;;2.13;;
15271;SDS011;7737;51.578;7.268;2022-09-01T06:50:32;7.80;;;2.22;;
15271;SDS011;7737;51.578;7.268;2022-09-01T06:52:59;5.55;;;2.45;;
15271;SDS011;7737;51.578;7.268;2022-09-01T06:55:34;4.63;;;1.80;;
15271;SDS011;7737;51.578;7.268;2022-09-01T06:58:02;4.60;;;2.10;;
15271;SDS011;7737;51.578;7.268;2022-09-01T07:00:31;6.95;;;2.08;;
15271;SDS011;7737;51.578;7.268;2022-09-01T07:03:03;3.20;;;2.00;;
15271;SDS011;7737;51.578;7.268;2022-09-01T07:05:36;3.72;;;1.80;;
15271;SDS011;7737;51.578;7.268;2022-09-01T07:08:04;4.47;;;2.22;;
15271;SDS011;7737;51.578;7.268;2022-09-01T07:10:37;4.40;;;1.83;;
15271;SDS011;7737;51.578;7.268;2022-09-01T07:13:09;5.13;;;2.03;;
15271;SDS011;7737;51.578;7.268;2022-09-01T07:15:37;5.38;;;1.65;;
15271;SDS011;7737;51.578;7.268;2022-09-01T07:18:04;5.57;;;2.00;;
15271;SDS011;7737;51.578;7.268;2022-09-01T07:20:31;4.60;;;2.05;;
15271;SDS011;7737;51.578;7.268;2022-09-01T07:23:04;4.78;;;2.15;;
15271;SDS011;7737;51.578;7.268;2022-09-01T07:25:31;6.72;;;2.20;;
15271;SDS011;7737;51.578;7.268;2022-09-01T07:28:03;5.70;;;2.28;;
15271;SDS011;7737;51.578;7.268;2022-09-01T07:30:30;4.93;;;1.95;;
15271;SDS011;7737;51.578;7.268;2022-09-01T07:32:57;4.20;;;1.80;;
15271;SDS011;7737;51.578;7.268;2022-09-01T07:35:24;2.83;;;1.55;;
15271;SDS011;7737;51.578;7.268;2022-09-01T07:37:51;3.78;;;1.50;;
15271;SDS011;7737;51.578;7.268;2022-09-01T07:40:20;5.03;;;1.23;;
15271;SDS011;7737;51.578;7.268;2022-09-01T07:42:47;3.92;;;1.83;;
15271;SDS011;7737;51.578;7.268;2022-09-01T07:45:18;3.80;;;1.52;;
15271;SDS011;7737;51.578;7.268;2022-09-01T07:47:47;4.88;;;1.80;;
15271;SDS011;7737;51.578;7.268;2022-09-01T07:50:14;1.45;;;1.05;;
15271;SDS011;7737;51.578;7.268;2022-09-01T07:52:42;4.38;;;1.17;;
15271;SDS011;7737;51.578;7.268;2022-09-01T07:55:14;4.80;;;1.30;;
15271;SDS011;7737;51.578;7.268;2022-09-01T07:57:43;1.95;;;1.17;;
15271;SDS011;7737;51.578;7.268;2022-09-01T08:00:10;2.58;;;1.10;;
15271;SDS011;7737;51.578;7.268;2022-09-01T08:02:39;2.60;;;1.20;;
15271;SDS011;7737;51.578;7.268;2022-09-01T08:05:06;3.83;;;1.10;;
15271;SDS011;7737;51.578;7.268;2022-09-01T08:07:34;4.28;;;1.25;;
15271;SDS011;7737;51.578;7.268;2022-09-01T08:10:00;4.90;;;1.30;;
15271;SDS011;7737;51.578;7.268;2022-09-01T08:12:27;2.72;;;1.10;;
15271;SDS011;7737;51.578;7.268;2022-09-01T08:14:55;2.42;;;1.30;;
15271;SDS011;7737;51.578;7.268;2022-09-01T08:17:21;2.35;;;1.27;;
15271;SDS011;7737;51.578;7.268;2022-09-01T08:19:48;3.47;;;1.20;;
15271;SDS011;7737;51.578;7.268;2022-09-01T08:22:15;1.75;;;1.20;;
15271;SDS011;7737;51.578;7.268;2022-09-01T08:24:41;4.15;;;1.10;;
15271;SDS011;7737;51.578;7.268;2022-09-01T08:27:08;2.33;;;1.20;;
15271;SDS011;7737;51.578;7.268;2022-09-01T08:29:34;1.65;;;1.20;;
15271;SDS011;7737;51.578;7.268;2022-09-01T08:32:02;1.85;;;1.15;;
15271;SDS011;7737;51.578;7.268;2022-09-01T08:34:30;3.63;;;1.10;;
15271;SDS011;7737;51.578;7.268;2022-09-01T08:36:57;4.65;;;1.40;;
15271;SDS011;7737;51.578;7.268;2022-09-01T08:39:24;1.30;;;1.10;;
15271;SDS011;7737;51.578;7.268;2022-09-01T08:41:53;1.77;;;1.15;;
15271;SDS011;7737;51.578;7.268;2022-09-01T08:44:28;3.10;;;1.40;;
15271;SDS011;7737;51.578;7.268;2022-09-01T08:47:08;2.17;;;1.20;;
15271;SDS011;7737;51.578;7.268;2022-09-01T08:49:36;2.47;;;1.38;;
15271;SDS011;7737;51.578;7.268;2022-09-01T08:52:06;6.13;;;1.35;;
15271;SDS011;7737;51.578;7.268;2022-09-01T08:54:39;1.95;;;0.90;;
15271;SDS011;7737;51.578;7.268;2022-09-01T08:57:12;2.88;;;1.00;;
15271;SDS011;7737;51.578;7.268;2022-09-01T08:59:42;2.13;;;1.10;;
15271;SDS011;7737;51.578;7.268;2022-09-01T09:02:14;4.53;;;0.98;;
15271;SDS011;7737;51.578;7.268;2022-09-01T09:04:58;2.25;;;0.95;;
15271;SDS011;7737;51.578;7.268;2022-09-01T09:07:35;4.07;;;0.90;;
15271;SDS011;7737;51.578;7.268;2022-09-01T09:10:16;1.40;;;1.00;;
15271;SDS011;7737;51.578;7.268;2022-09-01T09:12:48;2.72;;;1.08;;
15271;SDS011;7737;51.578;7.268;2022-09-01T09:15:26;2.60;;;0.93;;
15271;SDS011;7737;51.578;7.268;2022-09-01T09:18:05;3.88;;;1.10;;
15271;SDS011;7737;51.578;7.268;2022-09-01T09:20:38;1.27;;;0.80;;
15271;SDS011;7737;51.578;7.268;2022-09-01T09:23:08;2.42;;;1.00;;
15271;SDS011;7737;51.578;7.268;2022-09-01T09:25:44;2.78;;;0.90;;
15271;SDS011;7737;51.578;7.268;2022-09-01T09:28:11;1.33;;;1.00;;
15271;SDS011;7737;51.578;7.268;2022-09-01T09:30:37;1.48;;;0.90;;
15271;SDS011;7737;51.578;7.268;2022-09-01T09:33:06;1.35;;;0.82;;
15271;SDS011;7737;51.578;7.268;2022-09-01T09:35:36;1.65;;;0.80;;
15271;SDS011;7737;51.578;7.268;2022-09-01T09:38:20;3.00;;;1.00;;
15271;SDS011;7737;51.578;7.268;2022-09-01T09:40:54;2.00;;;1.10;;
15271;SDS011;7737;51.578;7.268;2022-09-01T09:43:23;5.38;;;1.30;;
15271;SDS011;7737;51.578;7.268;2022-09-01T09:45:52;2.55;;;1.15;;
15271;SDS011;7737;51.578;7.268;2022-09-01T09:49:12;2.20;;;0.88;;
15271;SDS011;7737;51.578;7.268;2022-09-01T09:51:45;1.88;;;0.90;;
15271;SDS011;7737;51.578;7.268;2022-09-01T09:54:14;3.17;;;0.93;;
15271;SDS011;7737;51.578;7.268;2022-09-01T09:56:45;3.97;;;0.80;;
15271;SDS011;7737;51.578;7.268;2022-09-01T09:59:25;4.10;;;0.90;;
15271;SDS011;7737;51.578;7.268;2022-09-01T10:01:56;2.08;;;0.80;;
15271;SDS011;7737;51.578;7.268;2022-09-01T10:04:35;2.78;;;1.05;;
15271;SDS011;7737;51.578;7.268;2022-09-01T10:07:23;3.38;;;1.13;;
15271;SDS011;7737;51.578;7.268;2022-09-01T10:09:52;2.58;;;0.85;;
15271;SDS011;7737;51.578;7.268;2022-09-01T10:12:20;3.67;;;1.00;;
15271;SDS011;7737;51.578;7.268;2022-09-01T10:14:50;2.85;;;1.00;;
15271;SDS011;7737;51.578;7.268;2022-09-01T10:17:20;2.08;;;0.90;;
15271;SDS011;7737;51.578;7.268;2022-09-01T10:19:53;3.00;;;0.80;;
15271;SDS011;7737;51.578;7.268;2022-09-01T10:22:22;1.27;;;0.93;;
15271;SDS011;7737;51.578;7.268;2022-09-01T10:24:50;1.10;;;0.95;;
15271;SDS011;7737;51.578;7.268;2022-09-01T10:27:18;1.98;;;0.90;;
15271;SDS011;7737;51.578;7.268;2022-09-01T10:29:47;1.67;;;0.82;;
15271;SDS011;7737;51.578;7.268;2022-09-01T10:32:19;2.53;;;0.90;;
15271;SDS011;7737;51.578;7.268;2022-09-01T10:34:49;1.67;;;0.70;;
15271;SDS011;7737;51.578;7.268;2022-09-01T10:37:18;1.85;;;0.80;;
15271;SDS011;7737;51.578;7.268;2022-09-01T10:42:38;1.38;;;0.90;;
15271;SDS011;7737;51.578;7.268;2022-09-01T10:45:14;2.65;;;0.82;;
15271;SDS011;7737;51.578;7.268;2022-09-01T10:47:44;1.75;;;1.10;;
15271;SDS011;7737;51.578;7.268;2022-09-01T10:50:22;2.78;;;1.00;;
15271;SDS011;7737;51.578;7.268;2022-09-01T10:52:53;1.63;;;0.90;;
15271;SDS011;7737;51.578;7.268;2022-09-01T10:55:23;1.55;;;0.88;;
15271;SDS011;7737;51.578;7.268;2022-09-01T10:57:57;1.50;;;1.10;;
15271;SDS011;7737;51.578;7.268;2022-09-01T11:00:49;1.58;;;1.00;;
15271;SDS011;7737;51.578;7.268;2022-09-01T11:03:31;1.95;;;1.00;;
15271;SDS011;7737;51.578;7.268;2022-09-01T11:09:28;2.10;;;0.90;;
15271;SDS011;7737;51.578;7.268;2022-09-01T11:12:07;2.50;;;1.13;;
15271;SDS011;7737;51.578;7.268;2022-09-01T11:15:01;3.72;;;1.10;;
15271;SDS011;7737;51.578;7.268;2022-09-01T11:17:30;2.03;;;1.00;;
15271;SDS011;7737;51.578;7.268;2022-09-01T11:20:02;3.20;;;1.08;;
15271;SDS011;7737;51.578;7.268;2022-09-01T11:22:34;3.55;;;1.10;;
15271;SDS011;7737;51.578;7.268;2022-09-01T11:25:09;1.50;;;1.00;;
15271;SDS011;7737;51.578;7.268;2022-09-01T11:27:59;4.60;;;1.08;;
15271;SDS011;7737;51.578;7.268;2022-09-01T11:30:33;3.13;;;1.10;;
15271;SDS011;7737;51.578;7.268;2022-09-01T11:33:10;3.20;;;1.17;;
15271;SDS011;7737;51.578;7.268;2022-09-01T11:35:49;1.40;;;1.10;;
15271;SDS011;7737;51.578;7.268;2022-09-01T11:38:24;4.30;;;1.40;;
15271;SDS011;7737;51.578;7.268;2022-09-01T11:40:55;2.45;;;1.00;;
15271;SDS011;7737;51.578;7.268;2022-09-01T11:43:22;4.00;;;1.30;;
15271;SDS011;7737;51.578;7.268;2022-09-01T11:45:53;4.53;;;1.20;;
15271;SDS011;7737;51.578;7.268;2022-09-01T11:48:27;1.90;;;1.10;;
15271;SDS011;7737;51.578;7.268;2022-09-01T11:50:56;2.50;;;0.90;;
15271;SDS011;7737;51.578;7.268;2022-09-01T11:53:24;5.72;;;1.30;;
15271;SDS011;7737;51.578;7.268;2022-09-01T11:55:52;3.85;;;1.05;;
15271;SDS011;7737;51.578;7.268;2022-09-01T11:58:36;2.85;;;1.05;;
15271;SDS011;7737;51.578;7.268;2022-09-01T12:01:10;3.05;;;1.20;;
15271;SDS011;7737;51.578;7.268;2022-09-01T12:03:39;3.33;;;1.10;;
15271;SDS011;7737;51.578;7.268;2022-09-01T12:06:07;2.67;;;1.02;;
15271;SDS011;7737;51.578;7.268;2022-09-01T12:08:37;3.05;;;1.25;;
15271;SDS011;7737;51.578;7.268;2022-09-01T12:11:09;3.63;;;1.48;;
15271;SDS011;7737;51.578;7.268;2022-09-01T12:13:38;4.25;;;1.10;;
15271;SDS011;7737;51.578;7.268;2022-09-01T12:16:06;3.65;;;1.08;;
15271;SDS011;7737;51.578;7.268;2022-09-01T12:18:36;1.60;;;1.00;;
15271;SDS011;7737;51.578;7.268;2022-09-01T12:21:23;1.67;;;1.10;;
15271;SDS011;7737;51.578;7.268;2022-09-01T12:23:52;5.55;;;1.10;;
15271;SDS011;7737;51.578;7.268;2022-09-01T12:26:22;2.75;;;1.20;;
15271;SDS011;7737;51.578;7.268;2022-09-01T12:28:55;3.58;;;1.10;;
15271;SDS011;7737;51.578;7.268;2022-09-01T12:31:22;4.90;;;1.33;;
15271;SDS011;7737;51.578;7.268;2022-09-01T12:33:51;1.48;;;1.10;;
15271;SDS011;7737;51.578;7.268;2022-09-01T12:36:20;2.20;;;1.00;;
15271;SDS011;7737;51.578;7.268;2022-09-01T12:38:48;3.28;;;1.10;;
15271;SDS011;7737;51.578;7.268;2022-09-01T12:41:31;2.45;;;1.17;;
15271;SDS011;7737;51.578;7.268;2022-09-01T12:46:51;1.88;;;1.10;;
15271;SDS011;7737;51.578;7.268;2022-09-01T12:49:20;1.42;;;0.85;;
15271;SDS011;7737;51.578;7.268;2022-09-01T12:51:49;3.28;;;1.30;;
15271;SDS011;7737;51.578;7.268;2022-09-01T12:54:31;3.17;;;1.00;;
15271;SDS011;7737;51.578;7.268;2022-09-01T12:56:59;1.77;;;1.00;;
15271;SDS011;7737;51.578;7.268;2022-09-01T12:59:26;1.92;;;0.90;;
15271;SDS011;7737;51.578;7.268;2022-09-01T13:01:52;2.33;;;0.93;;
15271;SDS011;7737;51.578;7.268;2022-09-01T13:04:26;2.40;;;1.00;;
15271;SDS011;7737;51.578;7.268;2022-09-01T13:06:55;1.80;;;0.98;;
15271;SDS011;7737;51.578;7.268;2022-09-01T13:09:26;3.20;;;1.05;;
15271;SDS011;7737;51.578;7.268;2022-09-01T13:12:00;2.20;;;0.80;;
15271;SDS011;7737;51.578;7.268;2022-09-01T13:14:36;1.55;;;0.98;;
15271;SDS011;7737;51.578;7.268;2022-09-01T13:17:02;6.28;;;1.23;;
15271;SDS011;7737;51.578;7.268;2022-09-01T13:19:30;2.53;;;1.10;;
15271;SDS011;7737;51.578;7.268;2022-09-01T13:21:56;1.33;;;0.80;;
15271;SDS011;7737;51.578;7.268;2022-09-01T13:24:23;2.47;;;0.90;;
15271;SDS011;7737;51.578;7.268;2022-09-01T13:26:49;3.17;;;0.90;;
15271;SDS011;7737;51.578;7.268;2022-09-01T13:29:22;3.95;;;1.00;;
15271;SDS011;7737;51.578;7.268;2022-09-01T13:31:49;1.75;;;1.00;;
15271;SDS011;7737;51.578;7.268;2022-09-01T13:34:16;3.17;;;1.00;;
15271;SDS011;7737;51.578;7.268;2022-09-01T13:36:42;3.22;;;1.58;;
15271;SDS011;7737;51.578;7.268;2022-09-01T13:39:09;1.83;;;0.98;;
15271;SDS011;7737;51.578;7.268;2022-09-01T13:41:35;1.58;;;0.88;;
15271;SDS011;7737;51.578;7.268;2022-09-01T13:44:02;2.05;;;1.00;;
15271;SDS011;7737;51.578;7.268;2022-09-01T13:46:30;1.13;;;0.90;;
15271;SDS011;7737;51.578;7.268;2022-09-01T13:48:56;3.30;;;1.13;;
15271;SDS011;7737;51.578;7.268;2022-09-01T13:51:24;2.00;;;1.10;;
15271;SDS011;7737;51.578;7.268;2022-09-01T13:53:51;2.45;;;0.80;;
15271;SDS011;7737;51.578;7.268;2022-09-01T13:56:18;1.98;;;0.88;;
15271;SDS011;7737;51.578;7.268;2022-09-01T13:58:44;1.77;;;1.02;;
15271;SDS011;7737;51.578;7.268;2022-09-01T14:01:12;2.35;;;1.10;;
15271;SDS011;7737;51.578;7.268;2022-09-01T14:03:40;1.60;;;0.85;;
15271;SDS011;7737;51.578;7.268;2022-09-01T14:06:08;4.75;;;1.08;;
15271;SDS011;7737;51.578;7.268;2022-09-01T14:08:34;1.17;;;0.90;;
15271;SDS011;7737;51.578;7.268;2022-09-01T14:11:01;4.80;;;1.20;;
15271;SDS011;7737;51.578;7.268;2022-09-01T14:13:27;1.67;;;1.08;;
15271;SDS011;7737;51.578;7.268;2022-09-01T14:15:55;2.10;;;0.88;;
15271;SDS011;7737;51.578;7.268;2022-09-01T14:18:22;2.25;;;1.05;;
15271;SDS011;7737;51.578;7.268;2022-09-01T14:21:02;2.55;;;0.80;;
15271;SDS011;7737;51.578;7.268;2022-09-01T14:23:29;1.83;;;1.10;;
15271;SDS011;7737;51.578;7.268;2022-09-01T14:25:55;2.53;;;0.90;;
15271;SDS011;7737;51.578;7.268;2022-09-01T14:28:23;2.78;;;0.95;;
15271;SDS011;7737;51.578;7.268;2022-09-01T14:30:50;2.53;;;0.90;;
15271;SDS011;7737;51.578;7.268;2022-09-01T14:33:17;2.50;;;1.00;;
15271;SDS011;7737;51.578;7.268;2022-09-01T14:35:48;2.70;;;1.00;;
15271;SDS011;7737;51.578;7.268;2022-09-01T14:38:16;5.03;;;1.30;;
15271;SDS011;7737;51.578;7.268;2022-09-01T14:40:45;1.52;;;0.80;;
15271;SDS011;7737;51.578;7.268;2022-09-01T14:43:12;3.40;;;1.10;;
15271;SDS011;7737;51.578;7.268;2022-09-01T14:45:40;1.63;;;1.00;;
15271;SDS011;7737;51.578;7.268;2022-09-01T14:48:08;4.13;;;1.05;;
15271;SDS011;7737;51.578;7.268;2022-09-01T14:50:37;1.45;;;1.00;;
15271;SDS011;7737;51.578;7.268;2022-09-01T14:53:05;2.90;;;1.00;;
15271;SDS011;7737;51.578;7.268;2022-09-01T14:55:33;2.28;;;1.00;;
15271;SDS011;7737;51.578;7.268;2022-09-01T14:58:00;1.90;;;0.90;;
15271;SDS011;7737;51.578;7.268;2022-09-01T15:00:27;1.92;;;1.00;;
15271;SDS011;7737;51.578;7.268;2022-09-01T15:02:55;1.55;;;1.00;;
15271;SDS011;7737;51.578;7.268;2022-09-01T15:05:23;2.30;;;1.08;;
15271;SDS011;7737;51.578;7.268;2022-09-01T15:07:50;2.58;;;0.98;;
15271;SDS011;7737;51.578;7.268;2022-09-01T15:10:19;2.25;;;1.02;;
15271;SDS011;7737;51.578;7.268;2022-09-01T15:12:49;1.10;;;0.82;;
15271;SDS011;7737;51.578;7.268;2022-09-01T15:15:15;2.67;;;0.90;;
15271;SDS011;7737;51.578;7.268;2022-09-01T15:17:42;2.40;;;0.90;;
15271;SDS011;7737;51.578;7.268;2022-09-01T15:20:09;1.92;;;0.88;;
15271;SDS011;7737;51.578;7.268;2022-09-01T15:22:53;1.63;;;0.88;;
15271;SDS011;7737;51.578;7.268;2022-09-01T15:25:20;2.78;;;0.90;;